Time;durP1;ratioP1;P1;durP2;ratioP2;P2;SDS_P1;SDS_P2;PMS_P1;PMS_P2;Temp;Humidity;BMP_temperature;BMP_pressure;BME280_temperature;BME280_humidity;BME280_pressure;Samples;Min_cycle;Max_cycle;Signal;HPM_P1;HPM_P2
2022/08/02 00:02:06;;;;;;;8.07;2.00;;;11.20;99.90;;;;;;5022504;28;20235;-75
2022/08/02 00:04:32;;;;;;;7.27;2.47;;;11.20;99.90;;;;;;5046040;28;20587;-75
2022/08/02 00:06:59;;;;;;;8.70;2.90;;;11.10;99.90;;;;;;5046079;28;20233;-75
2022/08/02 00:09:26;;;;;;;6.93;2.50;;;11.10;99.90;;;;;;5027258;28;20321;-74
2022/08/02 00:11:54;;;;;;;5.43;2.20;;;11.10;99.90;;;;;;5045081;28;20512;-75
2022/08/02 00:14:21;;;;;;;5.50;1.90;;;11.00;99.90;;;;;;5049091;28;20215;-73
2022/08/02 00:16:48;;;;;;;5.17;1.93;;;11.00;99.90;;;;;;5048489;28;20228;-75
2022/08/02 00:19:15;;;;;;;6.47;2.30;;;11.00;99.90;;;;;;5026618;28;20584;-74
2022/08/02 00:21:42;;;;;;;4.40;2.10;;;10.90;99.90;;;;;;5037477;28;20755;-75
2022/08/02 00:24:08;;;;;;;4.50;1.80;;;10.90;99.90;;;;;;5025384;28;20217;-74
2022/08/02 00:26:35;;;;;;;8.60;2.10;;;10.90;99.90;;;;;;5044461;28;20603;-75
2022/08/02 00:29:03;;;;;;;4.30;2.23;;;10.80;99.90;;;;;;5042388;28;20738;-74
2022/08/02 00:31:31;;;;;;;6.87;2.60;;;10.80;99.90;;;;;;5018797;28;20225;-75
2022/08/02 00:33:57;;;;;;;8.07;2.37;;;10.80;99.90;;;;;;5049769;28;20317;-74
2022/08/02 00:36:24;;;;;;;7.87;2.93;;;10.80;99.90;;;;;;5044530;28;20234;-74
2022/08/02 00:38:51;;;;;;;6.10;2.77;;;10.80;99.90;;;;;;5048941;28;20258;-74
2022/08/02 00:41:20;;;;;;;3.63;1.87;;;10.70;99.90;;;;;;5035539;28;20297;-74
2022/08/02 00:43:48;;;;;;;5.37;2.40;;;10.70;99.90;;;;;;5026949;28;20231;-74
2022/08/02 00:46:18;;;;;;;6.40;2.30;;;10.70;99.90;;;;;;5032638;28;20220;-75
2022/08/02 00:48:45;;;;;;;6.03;2.77;;;10.60;99.90;;;;;;5044723;28;20226;-74
2022/08/02 00:51:12;;;;;;;4.80;2.27;;;10.60;99.90;;;;;;5042136;28;20572;-75
2022/08/02 00:53:39;;;;;;;3.70;2.40;;;10.60;99.90;;;;;;5045111;28;20223;-73
2022/08/02 00:56:05;;;;;;;5.50;2.13;;;10.60;99.90;;;;;;5045662;28;20227;-74
2022/08/02 00:58:32;;;;;;;6.97;2.50;;;10.50;99.90;;;;;;5024649;28;20229;-74
2022/08/02 01:01:00;;;;;;;4.30;2.43;;;10.50;99.90;;;;;;5048913;28;20227;-74
2022/08/02 01:03:28;;;;;;;4.07;1.83;;;10.50;99.90;;;;;;5042989;28;20227;-74
2022/08/02 01:05:55;;;;;;;6.77;2.33;;;10.40;99.90;;;;;;5044485;28;20236;-75
2022/08/02 01:08:22;;;;;;;5.37;2.13;;;10.40;99.90;;;;;;5045723;28;20220;-74
2022/08/02 01:10:48;;;;;;;4.10;2.00;;;10.30;99.90;;;;;;5040988;28;20573;-74
2022/08/02 01:13:16;;;;;;;5.20;2.27;;;10.30;99.90;;;;;;5041487;28;20318;-74
2022/08/02 01:15:49;;;;;;;3.87;2.37;;;10.30;99.90;;;;;;5045634;28;20303;-74
2022/08/02 01:18:23;;;;;;;4.40;2.00;;;10.20;99.90;;;;;;5042771;28;20237;-74
2022/08/02 01:21:10;;;;;;;3.40;2.00;;;10.20;99.90;;;;;;5041210;28;20246;-74
2022/08/02 01:23:55;;;;;;;4.37;1.80;;;10.20;99.90;;;;;;5033732;28;20674;-73
2022/08/02 01:26:37;;;;;;;4.40;1.60;;;10.20;99.90;;;;;;5042542;28;20216;-73
2022/08/02 01:29:08;;;;;;;5.83;2.07;;;10.20;99.90;;;;;;5040140;28;20490;-74
2022/08/02 01:31:40;;;;;;;5.43;2.33;;;10.10;99.90;;;;;;5043194;28;20306;-74
2022/08/02 01:34:16;;;;;;;5.70;2.20;;;10.10;99.90;;;;;;5060779;28;20237;-74
2022/08/02 01:36:48;;;;;;;5.97;2.03;;;10.10;99.90;;;;;;5040663;28;20227;-74
2022/08/02 01:39:19;;;;;;;4.53;2.17;;;10.00;99.90;;;;;;5046886;28;20228;-73
2022/08/02 01:41:47;;;;;;;5.00;2.13;;;10.00;99.90;;;;;;5047042;28;20226;-74
2022/08/02 01:44:18;;;;;;;7.93;2.93;;;10.00;99.90;;;;;;5034554;28;20226;-74
2022/08/02 01:46:46;;;;;;;7.57;2.87;;;9.90;99.90;;;;;;5046460;28;20226;-73
2022/08/02 01:49:18;;;;;;;3.47;1.87;;;9.90;99.90;;;;;;5042078;28;20223;-73
2022/08/02 01:54:34;;;;;;;4.10;2.30;;;9.90;99.90;;;;;;5043029;28;20239;-74
2022/08/02 01:57:04;;;;;;;6.37;2.20;;;9.90;99.90;;;;;;5042607;28;20228;-74
2022/08/02 01:59:35;;;;;;;6.87;2.87;;;9.80;99.90;;;;;;5046883;28;20814;-74
2022/08/02 02:02:02;;;;;;;5.07;2.27;;;9.80;99.90;;;;;;5047658;28;20226;-74
2022/08/02 02:04:31;;;;;;;3.80;2.00;;;9.80;99.90;;;;;;5023449;28;20223;-75
2022/08/02 02:06:59;;;;;;;8.37;2.40;;;9.70;99.90;;;;;;5028875;28;20231;-74
2022/08/02 02:09:30;;;;;;;4.67;2.10;;;9.70;99.90;;;;;;5043740;28;20567;-73
2022/08/02 02:11:59;;;;;;;7.80;2.57;;;9.70;99.90;;;;;;5023252;28;20666;-74
2022/08/02 02:14:29;;;;;;;4.43;2.53;;;9.60;99.90;;;;;;5047280;28;20230;-74
2022/08/02 02:16:58;;;;;;;3.10;2.00;;;9.60;99.90;;;;;;5043709;28;20240;-73
2022/08/02 02:19:27;;;;;;;3.57;1.80;;;9.60;99.90;;;;;;5045095;28;20238;-73
2022/08/02 02:21:54;;;;;;;4.80;2.17;;;9.60;99.90;;;;;;5030414;28;20226;-74
2022/08/02 02:24:21;;;;;;;3.80;2.30;;;9.50;99.90;;;;;;5041316;28;20230;-73
2022/08/02 02:26:49;;;;;;;3.77;2.47;;;9.50;99.90;;;;;;5045801;28;21791;-73
2022/08/02 02:29:18;;;;;;;6.63;2.77;;;9.50;99.90;;;;;;5042436;28;20226;-74
2022/08/02 02:31:47;;;;;;;2.37;1.60;;;9.50;99.90;;;;;;5046248;28;20247;-74
2022/08/02 02:34:22;;;;;;;4.80;2.00;;;9.50;99.90;;;;;;5045811;28;20237;-74
2022/08/02 02:36:51;;;;;;;4.70;2.50;;;9.50;99.90;;;;;;5049685;28;20233;-73
2022/08/02 02:39:22;;;;;;;3.97;2.13;;;9.40;99.90;;;;;;5044183;28;20227;-73
2022/08/02 02:41:51;;;;;;;5.20;2.70;;;9.40;99.90;;;;;;5043076;28;20227;-74
2022/08/02 02:44:20;;;;;;;4.53;2.13;;;9.30;99.90;;;;;;5041712;28;20939;-73
2022/08/02 02:46:50;;;;;;;5.87;2.33;;;9.30;99.90;;;;;;5055625;28;20222;-75
2022/08/02 02:49:19;;;;;;;4.30;2.47;;;9.30;99.90;;;;;;5044740;28;20223;-75
2022/08/02 02:51:47;;;;;;;6.73;2.80;;;9.30;99.90;;;;;;5046638;28;20233;-75
2022/08/02 02:54:15;;;;;;;6.33;2.73;;;9.30;99.90;;;;;;5041702;28;20610;-76
2022/08/02 02:56:43;;;;;;;5.73;2.83;;;9.20;99.90;;;;;;5042185;28;20226;-75
2022/08/02 02:59:12;;;;;;;4.77;2.50;;;9.20;99.90;;;;;;5050816;28;20222;-74
2022/08/02 03:01:40;;;;;;;5.07;2.33;;;9.20;99.90;;;;;;5027003;28;20888;-75
2022/08/02 03:04:09;;;;;;;5.70;2.10;;;9.10;99.90;;;;;;5025874;28;20222;-75
2022/08/02 03:06:39;;;;;;;3.70;2.60;;;9.10;99.90;;;;;;5041597;28;20234;-74
2022/08/02 03:09:06;;;;;;;3.23;2.40;;;9.10;99.90;;;;;;5041511;28;20298;-75
2022/08/02 03:11:35;;;;;;;3.80;2.30;;;9.10;99.90;;;;;;5037263;28;20226;-74
2022/08/02 03:14:03;;;;;;;2.93;2.20;;;9.00;99.90;;;;;;5050106;28;20233;-75
2022/08/02 03:16:30;;;;;;;5.37;2.37;;;9.00;99.90;;;;;;5030725;28;20703;-78
2022/08/02 03:18:58;;;;;;;5.93;2.87;;;9.00;99.90;;;;;;5055934;28;20265;-77
2022/08/02 03:21:25;;;;;;;3.60;2.10;;;9.00;99.90;;;;;;5038668;28;20229;-78
2022/08/02 03:23:53;;;;;;;5.03;2.20;;;9.00;99.90;;;;;;5048428;28;20228;-78
2022/08/02 03:26:20;;;;;;;3.80;2.10;;;9.00;99.90;;;;;;5037719;28;20241;-80
2022/08/02 03:28:46;;;;;;;3.83;2.10;;;8.90;99.90;;;;;;5050072;28;20313;-79
2022/08/02 03:31:13;;;;;;;5.47;2.00;;;8.90;99.90;;;;;;5053098;28;20222;-78
2022/08/02 03:33:40;;;;;;;4.67;2.00;;;8.90;99.90;;;;;;5034149;28;20225;-80
2022/08/02 03:36:11;;;;;;;6.37;2.20;;;8.90;99.90;;;;;;5047693;28;20227;-78
2022/08/02 03:38:40;;;;;;;5.60;2.10;;;8.90;99.90;;;;;;5044392;28;20862;-78
2022/08/02 03:41:09;;;;;;;2.10;1.70;;;8.90;99.90;;;;;;5045762;28;20222;-78
2022/08/02 03:43:37;;;;;;;9.50;2.30;;;8.90;99.90;;;;;;5050033;28;20219;-77
2022/08/02 03:46:07;;;;;;;5.37;2.07;;;8.90;99.90;;;;;;5021906;28;20226;-77
2022/08/02 03:48:34;;;;;;;3.77;2.00;;;8.90;99.90;;;;;;5041679;28;20226;-78
2022/08/02 03:51:02;;;;;;;3.93;2.33;;;9.00;99.90;;;;;;5043365;28;20221;-79
2022/08/02 03:53:28;;;;;;;5.77;2.00;;;8.90;99.90;;;;;;5041280;28;20914;-76
2022/08/02 03:55:55;;;;;;;4.47;2.37;;;9.00;99.90;;;;;;5046301;28;20949;-77
2022/08/02 03:58:24;;;;;;;3.47;2.00;;;9.00;99.90;;;;;;5045373;28;20233;-78
2022/08/02 04:00:53;;;;;;;5.97;2.40;;;9.00;99.90;;;;;;5021329;28;20241;-79
2022/08/02 04:03:19;;;;;;;6.30;2.70;;;9.00;99.90;;;;;;5033391;28;20295;-78
2022/08/02 04:05:46;;;;;;;5.60;2.97;;;9.10;99.90;;;;;;5054109;28;20210;-78
2022/08/02 04:08:16;;;;;;;4.60;2.20;;;9.10;99.90;;;;;;5044696;28;20222;-78
2022/08/02 04:13:32;;;;;;;6.43;2.90;;;9.20;99.90;;;;;;5038937;28;20279;-79
2022/08/02 04:16:04;;;;;;;7.03;2.60;;;9.20;99.90;;;;;;5050003;28;20232;-77
2022/08/02 04:18:39;;;;;;;5.07;2.33;;;9.30;99.90;;;;;;5043804;28;20599;-78
2022/08/02 04:21:07;;;;;;;5.70;2.60;;;9.30;99.90;;;;;;5042754;28;20764;-78
2022/08/02 04:23:37;;;;;;;6.03;3.43;;;9.30;99.90;;;;;;5034984;28;20239;-78
2022/08/02 04:26:05;;;;;;;6.73;3.20;;;9.40;99.90;;;;;;5045311;28;20563;-78
2022/08/02 04:28:35;;;;;;;5.00;2.70;;;9.40;99.90;;;;;;5010722;28;1031987;-79
2022/08/02 04:31:02;;;;;;;7.13;3.00;;;9.50;99.90;;;;;;5046294;28;20223;-83
2022/08/02 04:33:30;;;;;;;6.50;2.97;;;9.50;99.90;;;;;;5047919;28;21015;-78
2022/08/02 04:35:57;;;;;;;6.60;3.07;;;9.60;99.90;;;;;;5050507;28;20574;-79
2022/08/02 04:38:25;;;;;;;6.70;3.17;;;9.70;99.90;;;;;;5046090;28;20235;-79
2022/08/02 04:40:53;;;;;;;3.67;2.60;;;9.70;99.90;;;;;;5048520;28;20245;-78
2022/08/02 04:43:20;;;;;;;6.07;2.90;;;9.80;99.90;;;;;;5041566;28;20663;-80
2022/08/02 04:45:49;;;;;;;5.23;2.50;;;9.90;99.90;;;;;;5027971;28;20311;-78
2022/08/02 04:48:16;;;;;;;6.40;2.90;;;9.90;99.90;;;;;;5044783;28;20227;-80
2022/08/02 04:50:43;;;;;;;5.00;2.80;;;9.90;99.90;;;;;;5038258;28;20235;-78
2022/08/02 04:53:10;;;;;;;8.23;3.03;;;10.00;99.90;;;;;;5028094;28;20397;-79
2022/08/02 04:55:37;;;;;;;5.87;2.77;;;10.00;99.90;;;;;;5049035;28;20239;-80
2022/08/02 04:58:03;;;;;;;6.70;3.03;;;10.00;99.90;;;;;;5046425;28;20570;-79
2022/08/02 05:00:31;;;;;;;7.03;3.10;;;10.00;99.90;;;;;;5044307;28;20294;-78
2022/08/02 05:03:00;;;;;;;7.70;3.20;;;10.00;99.90;;;;;;5044604;28;20231;-79
2022/08/02 05:05:27;;;;;;;4.93;3.23;;;10.00;99.90;;;;;;5048981;28;20309;-79
2022/08/02 05:07:53;;;;;;;8.83;3.57;;;10.00;99.90;;;;;;5045925;28;20223;-78
2022/08/02 05:10:21;;;;;;;9.83;3.70;;;9.90;99.90;;;;;;5041024;28;20231;-78
2022/08/02 05:12:47;;;;;;;7.33;3.67;;;9.90;99.90;;;;;;5050150;28;20234;-79
2022/08/02 05:15:17;;;;;;;9.87;4.00;;;9.90;99.90;;;;;;5044497;28;20328;-78
2022/08/02 05:17:45;;;;;;;7.67;4.07;;;9.90;99.90;;;;;;5047773;28;20222;-78
2022/08/02 05:20:13;;;;;;;8.00;4.27;;;9.90;99.90;;;;;;5023784;28;20231;-78
2022/08/02 05:22:40;;;;;;;12.27;4.43;;;9.90;99.90;;;;;;5050490;28;20708;-78
2022/08/02 05:25:08;;;;;;;10.57;4.33;;;9.80;99.90;;;;;;5032108;28;20421;-78
2022/08/02 05:27:35;;;;;;;11.03;4.83;;;9.80;99.90;;;;;;5036661;28;20308;-78
2022/08/02 05:30:02;;;;;;;8.27;4.73;;;9.90;99.90;;;;;;5030614;28;20237;-78
2022/08/02 05:32:29;;;;;;;10.73;5.53;;;9.90;99.90;;;;;;5042355;28;20235;-78
2022/08/02 05:34:56;;;;;;;10.97;4.70;;;9.90;99.90;;;;;;5035384;28;20751;-78
2022/08/02 05:37:24;;;;;;;9.77;4.80;;;9.90;99.90;;;;;;5024754;28;20237;-79
2022/08/02 05:39:51;;;;;;;9.13;4.87;;;9.90;99.90;;;;;;5024183;28;20228;-78
2022/08/02 05:42:17;;;;;;;9.17;4.63;;;10.00;99.90;;;;;;5029403;28;20839;-80
2022/08/02 05:44:44;;;;;;;8.47;5.00;;;10.00;99.90;;;;;;5030505;28;20305;-78
2022/08/02 05:47:11;;;;;;;9.03;4.20;;;10.10;99.90;;;;;;5043485;28;20233;-78
2022/08/02 05:49:37;;;;;;;9.83;5.43;;;10.20;99.90;;;;;;5046536;28;20237;-79
2022/08/02 05:52:10;;;;;;;11.37;5.53;;;10.30;99.90;;;;;;5045103;28;20221;-78
2022/08/02 05:54:46;;;;;;;9.70;5.63;;;10.30;99.90;;;;;;5046945;28;20231;-78
2022/08/02 05:57:20;;;;;;;11.90;5.20;;;10.40;99.90;;;;;;5044715;28;20222;-78
2022/08/02 05:59:56;;;;;;;11.63;5.43;;;10.50;99.90;;;;;;5022481;28;20238;-78
2022/08/02 06:02:29;;;;;;;10.80;5.17;;;10.60;99.90;;;;;;5040284;28;20252;-78
2022/08/02 06:05:05;;;;;;;13.77;4.63;;;10.70;99.90;;;;;;5025246;28;20929;-81
2022/08/02 06:07:35;;;;;;;12.53;4.20;;;10.80;99.90;;;;;;5041841;28;20732;-80
2022/08/02 06:10:05;;;;;;;12.83;4.10;;;10.90;99.90;;;;;;5047880;28;20228;-79
2022/08/02 06:12:35;;;;;;;9.13;4.07;;;11.00;99.90;;;;;;5026893;28;20226;-79
2022/08/02 06:15:03;;;;;;;10.47;3.90;;;11.10;99.90;;;;;;5047179;28;20803;-80
2022/08/02 06:17:30;;;;;;;8.33;4.00;;;11.30;99.90;;;;;;5052517;28;20262;-79
2022/08/02 06:19:57;;;;;;;10.00;3.67;;;11.40;99.90;;;;;;5042800;28;20227;-78
2022/08/02 06:22:27;;;;;;;7.77;3.27;;;11.50;99.90;;;;;;5050854;28;20225;-80
2022/08/02 06:24:55;;;;;;;8.47;3.50;;;11.70;99.90;;;;;;5040829;28;20223;-79
2022/08/02 06:27:27;;;;;;;9.47;3.63;;;11.80;99.90;;;;;;5041854;28;20692;-78
2022/08/02 06:29:55;;;;;;;8.67;3.30;;;11.90;99.90;;;;;;5046824;28;20331;-82
2022/08/02 06:32:22;;;;;;;11.03;3.60;;;12.00;99.90;;;;;;5059345;28;20230;-83
2022/08/02 06:34:48;;;;;;;11.40;3.20;;;12.10;99.90;;;;;;5047428;28;20836;-84
2022/08/02 06:37:26;;;;;;;10.57;3.73;;;12.20;99.90;;;;;;5023887;28;20316;-83
2022/08/02 06:40:04;;;;;;;7.13;3.03;;;12.30;99.90;;;;;;5039592;28;20394;-84
2022/08/02 06:42:43;;;;;;;6.57;3.00;;;12.40;99.90;;;;;;5037347;28;20265;-82
2022/08/02 06:45:10;;;;;;;6.10;2.93;;;12.50;99.90;;;;;;5027038;28;20801;-84
2022/08/02 06:47:37;;;;;;;9.93;2.87;;;12.60;99.90;;;;;;5052119;28;20227;-85
2022/08/02 06:50:05;;;;;;;7.93;3.73;;;12.70;99.90;;;;;;5048147;28;20242;-83
2022/08/02 06:52:31;;;;;;;6.83;3.00;;;12.80;99.90;;;;;;5055326;28;20247;-81
2022/08/02 06:54:59;;;;;;;8.50;2.83;;;13.00;99.90;;;;;;5033444;28;21179;-80
2022/08/02 06:57:26;;;;;;;9.40;3.20;;;13.10;99.90;;;;;;5047659;28;20287;-83
2022/08/02 06:59:54;;;;;;;10.87;3.07;;;13.30;99.90;;;;;;5037162;28;20293;-84
2022/08/02 07:02:21;;;;;;;10.70;2.63;;;13.40;99.90;;;;;;5054714;28;20231;-79
2022/08/02 07:04:48;;;;;;;10.27;3.00;;;13.60;99.90;;;;;;5044282;28;20286;-79
2022/08/02 07:07:14;;;;;;;7.70;2.30;;;13.60;99.90;;;;;;5023986;28;20227;-79
2022/08/02 07:09:41;;;;;;;5.73;2.70;;;13.80;99.90;;;;;;5016829;28;20222;-79
2022/08/02 07:12:08;;;;;;;6.83;2.17;;;14.10;99.90;;;;;;5047100;28;20222;-79
2022/08/02 07:14:35;;;;;;;10.43;2.90;;;14.40;99.90;;;;;;5033459;28;20706;-79
2022/08/02 07:17:03;;;;;;;10.27;2.23;;;14.90;99.90;;;;;;5040125;28;20235;-79
2022/08/02 07:19:30;;;;;;;9.90;1.90;;;15.40;99.90;;;;;;5043110;28;21095;-79
2022/08/02 07:21:56;;;;;;;5.07;1.70;;;15.90;99.90;;;;;;5052290;28;20692;-78
2022/08/02 07:24:23;;;;;;;6.20;1.80;;;16.60;99.90;;;;;;5044767;28;20981;-80
2022/08/02 07:26:50;;;;;;;6.57;1.60;;;17.20;99.90;;;;;;5048138;28;20227;-78
2022/08/02 07:29:17;;;;;;;6.60;1.83;;;17.70;99.90;;;;;;5042058;28;20327;-79
2022/08/02 07:31:44;;;;;;;9.32;3.10;;;18.30;99.90;;;;;;5045974;28;20287;-78
2022/08/02 07:34:12;;;;;;;6.43;1.95;;;18.80;99.90;;;;;;5048120;28;20220;-78
2022/08/02 07:36:39;;;;;;;3.42;1.20;;;19.50;99.80;;;;;;5044686;28;20232;-79
2022/08/02 07:39:05;;;;;;;6.28;1.58;;;20.00;99.60;;;;;;5024875;28;20232;-78
2022/08/02 07:41:32;;;;;;;6.18;1.35;;;20.50;97.90;;;;;;5044419;28;20227;-79
2022/08/02 07:43:59;;;;;;;5.63;1.50;;;20.90;96.50;;;;;;5048853;28;20719;-80
2022/08/02 07:46:26;;;;;;;4.93;1.40;;;21.30;96.80;;;;;;5046849;28;20233;-79
2022/08/02 07:48:53;;;;;;;4.75;1.48;;;21.80;96.60;;;;;;5030403;28;20232;-79
2022/08/02 07:51:23;;;;;;;3.67;1.35;;;22.30;95.70;;;;;;5046520;28;20219;-78
2022/08/02 07:53:50;;;;;;;4.47;1.92;;;22.90;94.40;;;;;;5045464;28;20227;-79
2022/08/02 07:56:16;;;;;;;6.72;1.90;;;23.30;93.60;;;;;;5044695;28;20710;-79
2022/08/02 07:58:43;;;;;;;7.03;1.55;;;23.70;92.40;;;;;;5053943;28;20622;-82
2022/08/02 08:01:10;;;;;;;6.75;1.52;;;24.00;92.00;;;;;;5045070;28;20346;-81
2022/08/02 08:03:37;;;;;;;7.75;2.03;;;24.40;91.50;;;;;;5042845;28;20280;-80
2022/08/02 08:06:04;;;;;;;4.82;1.20;;;24.70;91.20;;;;;;5050219;28;20224;-80
2022/08/02 08:08:33;;;;;;;5.63;1.50;;;25.00;90.50;;;;;;5028932;28;20229;-80
2022/08/02 08:11:00;;;;;;;6.68;1.55;;;25.30;87.80;;;;;;5048789;28;20228;-80
2022/08/02 08:13:27;;;;;;;5.00;1.30;;;25.50;88.30;;;;;;5034530;28;20926;-80
2022/08/02 08:15:53;;;;;;;4.28;1.75;;;25.80;87.30;;;;;;5043804;28;20223;-80
2022/08/02 08:18:21;;;;;;;4.72;1.60;;;26.10;84.90;;;;;;5048416;28;20286;-80
2022/08/02 08:20:50;;;;;;;6.03;1.90;;;26.30;83.30;;;;;;5050083;28;20212;-80
2022/08/02 08:23:17;;;;;;;8.05;2.10;;;26.50;82.80;;;;;;5045556;28;20220;-80
2022/08/02 08:25:45;;;;;;;3.72;1.75;;;26.60;82.10;;;;;;5038877;28;20288;-80
2022/08/02 08:28:12;;;;;;;5.10;1.40;;;26.80;80.20;;;;;;5028760;28;20296;-80
2022/08/02 08:30:40;;;;;;;3.80;1.63;;;26.90;78.40;;;;;;5032118;28;20321;-80
2022/08/02 08:33:07;;;;;;;5.22;1.88;;;27.00;76.20;;;;;;5046575;28;20310;-80
2022/08/02 08:35:37;;;;;;;7.28;1.88;;;27.00;77.20;;;;;;5044253;28;20304;-80
2022/08/02 08:38:04;;;;;;;3.38;1.45;;;27.00;76.10;;;;;;5035403;28;20270;-80
2022/08/02 08:40:31;;;;;;;5.00;1.73;;;27.00;75.80;;;;;;5028697;28;20701;-80
2022/08/02 08:42:59;;;;;;;6.53;1.70;;;27.10;73.90;;;;;;5043686;28;20579;-80
2022/08/02 08:45:26;;;;;;;5.00;1.85;;;27.20;74.00;;;;;;5027794;28;20803;-85
2022/08/02 08:48:00;;;;;;;5.68;1.67;;;27.40;74.80;;;;;;5031228;28;20220;-84
2022/08/02 08:50:30;;;;;;;3.35;1.40;;;27.50;71.80;;;;;;5043217;28;20307;-79
2022/08/02 08:53:02;;;;;;;4.55;1.60;;;27.70;72.60;;;;;;5022031;28;20721;-79
2022/08/02 08:55:30;;;;;;;5.82;1.50;;;28.00;71.00;;;;;;5044197;28;20232;-78
2022/08/02 08:58:00;;;;;;;7.55;1.80;;;28.20;70.70;;;;;;5044579;28;20299;-79
2022/08/02 09:00:27;;;;;;;6.55;1.77;;;28.40;68.40;;;;;;5022952;28;20227;-79
2022/08/02 09:02:54;;;;;;;3.80;1.52;;;28.50;66.90;;;;;;5040150;28;20223;-79
2022/08/02 09:05:21;;;;;;;4.53;1.65;;;28.40;66.40;;;;;;5048069;28;20271;-79
2022/08/02 09:07:48;;;;;;;4.95;1.45;;;28.40;66.10;;;;;;5037629;28;20239;-79
2022/08/02 09:10:35;;;;;;;4.45;1.80;;;28.30;66.10;;;;;;5049140;28;20235;-79
2022/08/02 09:13:15;;;;;;;3.60;1.70;;;28.30;66.80;;;;;;5044457;28;20219;-80
2022/08/02 09:15:44;;;;;;;3.28;1.35;;;28.40;65.80;;;;;;5040975;28;20224;-79
2022/08/02 09:18:12;;;;;;;5.82;1.50;;;28.60;66.10;;;;;;5020576;28;20248;-79
2022/08/02 09:20:52;;;;;;;4.15;1.73;;;28.80;65.40;;;;;;5040924;28;20219;-80
2022/08/02 09:23:21;;;;;;;4.03;1.25;;;29.00;62.80;;;;;;5025224;28;20810;-80
2022/08/02 09:25:57;;;;;;;15.35;2.63;;;29.20;64.20;;;;;;5040693;28;20273;-82
2022/08/02 09:28:31;;;;;;;4.07;1.23;;;29.30;62.50;;;;;;5047605;28;20610;-80
2022/08/02 09:31:02;;;;;;;5.75;1.40;;;29.40;62.60;;;;;;5045198;28;20238;-79
2022/08/02 09:33:29;;;;;;;5.28;1.70;;;29.50;63.40;;;;;;5045968;28;20248;-82
2022/08/02 09:36:02;;;;;;;3.80;1.52;;;29.60;61.30;;;;;;5045203;28;20223;-82
2022/08/02 09:38:29;;;;;;;4.35;1.50;;;29.50;60.60;;;;;;5042309;28;20220;-81
2022/08/02 09:40:57;;;;;;;4.68;1.42;;;29.50;61.80;;;;;;5048058;28;20307;-82
2022/08/02 09:43:37;;;;;;;4.80;1.70;;;29.50;62.30;;;;;;5043758;28;20231;-82
2022/08/02 09:46:11;;;;;;;8.57;1.90;;;29.50;59.60;;;;;;5048205;28;20379;-81
2022/08/02 09:48:47;;;;;;;4.93;1.55;;;29.60;60.00;;;;;;5046785;28;20266;-82
2022/08/02 09:51:18;;;;;;;4.10;1.75;;;29.60;59.20;;;;;;5065859;28;20231;-82
2022/08/02 09:53:47;;;;;;;6.57;1.63;;;29.60;59.20;;;;;;5016235;28;20241;-82
2022/08/02 09:56:13;;;;;;;5.50;1.70;;;29.60;59.20;;;;;;5049403;28;20234;-82
2022/08/02 09:58:42;;;;;;;5.35;1.60;;;29.50;59.40;;;;;;5046922;28;20219;-82
2022/08/02 10:01:09;;;;;;;5.20;1.92;;;29.30;57.60;;;;;;5027156;28;20583;-82
2022/08/02 10:03:35;;;;;;;5.25;1.38;;;29.20;58.70;;;;;;5046113;28;20249;-82
2022/08/02 10:06:03;;;;;;;5.90;1.60;;;29.10;58.50;;;;;;5048282;28;20251;-82
2022/08/02 10:08:31;;;;;;;4.75;1.45;;;29.10;59.40;;;;;;5028523;28;20215;-82
2022/08/02 10:11:02;;;;;;;3.95;1.15;;;29.20;58.80;;;;;;5030515;28;20903;-82
2022/08/02 10:13:30;;;;;;;4.07;1.13;;;29.20;58.80;;;;;;5026496;28;20231;-82
2022/08/02 10:15:58;;;;;;;3.67;1.50;;;29.40;58.80;;;;;;5026890;28;20227;-82
2022/08/02 10:18:25;;;;;;;3.72;1.42;;;29.50;58.20;;;;;;5022427;28;20223;-82
2022/08/02 10:20:54;;;;;;;3.58;1.02;;;29.60;57.90;;;;;;5044166;28;20796;-82
2022/08/02 10:23:22;;;;;;;4.28;1.50;;;29.80;58.20;;;;;;5043826;28;20709;-82
2022/08/02 10:25:53;;;;;;;4.40;1.65;;;30.00;57.20;;;;;;5029774;28;20251;-82
2022/08/02 10:28:25;;;;;;;4.70;1.80;;;30.00;55.70;;;;;;5028145;28;20251;-82
2022/08/02 10:30:53;;;;;;;3.60;1.52;;;30.20;56.10;;;;;;5039287;28;20224;-82
2022/08/02 10:33:25;;;;;;;5.13;1.48;;;30.30;55.80;;;;;;5030469;28;20220;-82
2022/08/02 10:35:56;;;;;;;6.95;1.65;;;30.40;54.10;;;;;;5048231;28;20215;-82
2022/08/02 10:38:24;;;;;;;4.63;1.50;;;30.50;55.20;;;;;;5044572;28;20227;-82
2022/08/02 10:40:52;;;;;;;4.43;1.70;;;30.60;53.90;;;;;;5052121;28;20277;-82
2022/08/02 10:43:41;;;;;;;4.20;1.60;;;30.60;53.50;;;;;;5024527;28;20217;-82
2022/08/02 10:46:30;;;;;;;4.15;1.55;;;30.60;53.70;;;;;;5027068;28;20231;-82
2022/08/02 10:49:07;;;;;;;4.82;1.35;;;30.60;53.20;;;;;;5045950;28;20224;-82
2022/08/02 10:51:57;;;;;;;2.78;1.50;;;30.50;53.30;;;;;;5042822;28;20728;-82
2022/08/02 10:54:25;;;;;;;3.88;1.40;;;30.50;52.50;;;;;;5042777;28;20326;-82
2022/08/02 10:56:54;;;;;;;4.47;1.30;;;30.60;53.90;;;;;;5045635;28;20601;-82
2022/08/02 10:59:26;;;;;;;4.68;1.77;;;30.70;52.80;;;;;;5047633;28;20227;-82
2022/08/02 11:02:00;;;;;;;3.67;1.17;;;30.70;53.20;;;;;;5041816;28;20258;-82
2022/08/02 11:04:29;;;;;;;3.03;1.30;;;30.80;54.00;;;;;;5041171;28;20273;-82
2022/08/02 11:07:12;;;;;;;4.35;1.52;;;30.90;51.90;;;;;;5043481;28;20216;-82
2022/08/02 11:09:40;;;;;;;4.88;1.48;;;30.80;50.80;;;;;;5038832;28;20232;-82
2022/08/02 11:12:09;;;;;;;4.13;1.52;;;30.90;52.00;;;;;;5031024;28;20302;-82
2022/08/02 11:14:37;;;;;;;3.85;1.42;;;30.80;52.50;;;;;;5047433;28;20318;-83
2022/08/02 11:17:09;;;;;;;6.18;1.63;;;30.90;52.20;;;;;;5054107;28;20613;-83
2022/08/02 11:20:16;;;;;;;4.18;1.60;;;31.00;50.90;;;;;;5047583;28;20292;-82
2022/08/02 11:22:45;;;;;;;4.15;1.60;;;31.10;51.40;;;;;;5047508;28;20227;-82
2022/08/02 11:25:34;;;;;;;4.10;1.60;;;31.30;51.40;;;;;;5028494;28;20227;-82
2022/08/02 11:28:09;;;;;;;3.38;1.40;;;31.30;51.20;;;;;;5045535;28;20327;-83
2022/08/02 11:30:36;;;;;;;4.78;1.30;;;31.30;51.20;;;;;;5022621;28;20239;-82
2022/08/02 11:33:03;;;;;;;6.85;1.50;;;31.30;50.70;;;;;;5054701;28;20242;-82
2022/08/02 11:35:36;;;;;;;4.03;1.40;;;31.20;49.50;;;;;;5048180;28;20314;-83
2022/08/02 11:38:14;;;;;;;4.53;1.45;;;31.20;49.70;;;;;;5028109;28;20220;-82
2022/08/02 11:40:41;;;;;;;2.83;1.17;;;31.10;49.90;;;;;;5048601;28;20831;-83
2022/08/02 11:43:17;;;;;;;3.58;1.23;;;31.20;50.00;;;;;;5030934;28;20281;-83
2022/08/02 11:45:44;;;;;;;4.43;1.50;;;31.20;48.80;;;;;;5050628;28;20242;-83
2022/08/02 11:48:11;;;;;;;3.05;1.20;;;31.20;49.90;;;;;;5048367;28;20226;-82
2022/08/02 11:50:39;;;;;;;3.25;1.15;;;31.20;48.50;;;;;;5029581;28;20228;-82
2022/08/02 11:53:14;;;;;;;3.00;1.30;;;31.20;47.80;;;;;;5034004;28;20223;-80
2022/08/02 11:55:41;;;;;;;2.58;1.00;;;31.10;47.00;;;;;;5041191;28;20222;-81
2022/08/02 11:58:10;;;;;;;3.95;1.20;;;31.00;47.70;;;;;;5032498;28;20219;-81
2022/08/02 12:00:37;;;;;;;3.92;1.20;;;30.90;48.50;;;;;;5028622;28;20277;-83
2022/08/02 12:03:04;;;;;;;3.33;1.10;;;30.80;48.50;;;;;;5046920;28;20321;-82
2022/08/02 12:05:31;;;;;;;3.33;1.08;;;30.70;48.00;;;;;;5049328;28;20683;-82
2022/08/02 12:07:59;;;;;;;5.38;1.35;;;30.70;47.90;;;;;;5052446;28;20223;-82
2022/08/02 12:10:26;;;;;;;3.10;1.23;;;30.60;47.60;;;;;;5043494;28;20318;-82
2022/08/02 12:12:55;;;;;;;3.05;1.02;;;30.50;48.30;;;;;;5051749;28;20230;-82
2022/08/02 12:15:38;;;;;;;3.65;1.10;;;30.50;48.60;;;;;;5057563;28;20216;-81
2022/08/02 12:20:54;;;;;;;4.18;1.10;;;30.50;47.10;;;;;;5047486;28;20604;-82
2022/08/02 12:23:22;;;;;;;3.15;1.30;;;30.50;48.00;;;;;;5049035;28;21001;-82
2022/08/02 12:26:00;;;;;;;4.03;1.20;;;30.50;47.40;;;;;;5055203;28;20219;-82
2022/08/02 12:28:27;;;;;;;2.03;1.00;;;30.30;47.70;;;;;;5051402;28;20219;-82
2022/08/02 12:30:57;;;;;;;2.17;1.25;;;30.30;47.90;;;;;;5049412;28;20230;-82
2022/08/02 12:33:26;;;;;;;5.18;1.40;;;30.20;47.20;;;;;;5023379;28;20224;-81
2022/08/02 12:35:53;;;;;;;2.97;1.20;;;30.10;48.00;;;;;;5061156;28;20286;-81
2022/08/02 12:38:20;;;;;;;2.90;1.38;;;30.10;48.40;;;;;;5049622;28;20235;-81
2022/08/02 12:40:48;;;;;;;1.83;0.95;;;30.10;48.20;;;;;;5048674;28;20988;-82
2022/08/02 12:43:20;;;;;;;4.82;1.10;;;30.10;46.70;;;;;;5045680;28;20729;-82
2022/08/02 12:45:50;;;;;;;3.50;1.30;;;30.00;46.60;;;;;;5048161;28;20222;-82
2022/08/02 12:48:29;;;;;;;3.17;1.20;;;29.90;46.70;;;;;;5028287;28;20748;-82
2022/08/02 12:50:55;;;;;;;2.90;1.30;;;29.80;48.00;;;;;;5050543;28;20251;-82
2022/08/02 12:53:31;;;;;;;4.65;1.30;;;29.80;47.80;;;;;;5051139;28;20219;-83
2022/08/02 12:56:01;;;;;;;4.05;2.10;;;29.80;46.90;;;;;;5047214;28;20258;-82
2022/08/02 12:58:28;;;;;;;5.30;3.53;;;29.80;47.50;;;;;;5045475;28;20979;-81
2022/08/02 13:00:57;;;;;;;2.45;1.20;;;29.80;47.60;;;;;;5028284;28;20824;-82
2022/08/02 13:03:24;;;;;;;2.15;1.23;;;29.70;47.10;;;;;;5046831;28;20232;-82
2022/08/02 13:05:51;;;;;;;4.05;1.20;;;29.60;48.00;;;;;;5057112;28;20237;-82
2022/08/02 13:08:18;;;;;;;7.13;1.40;;;29.60;47.60;;;;;;5047318;28;20621;-82